createdAt,value
2019-01-09T00:00:35.161Z,0.5
2019-01-09T00:03:41.156Z,0.5
2019-01-09T00:06:47.264Z,0.5
2019-01-09T00:09:53.177Z,0.5
2019-01-09T00:12:59.240Z,0.5
2019-01-09T00:16:05.270Z,0.5
2019-01-09T00:19:11.270Z,0.5
2019-01-09T00:22:17.144Z,0.5
2019-01-09T00:25:23.081Z,0.5
2019-01-09T00:28:28.949Z,0.5
2019-01-09T00:31:35.101Z,0.5
2019-01-09T00:34:40.978Z,0.5
2019-01-09T00:37:46.915Z,0.5
2019-01-09T00:40:52.785Z,0.5
2019-01-09T00:43:58.739Z,0.5
2019-01-09T00:47:04.662Z,0.5
2019-01-09T00:50:10.656Z,0.5
2019-01-09T00:53:16.551Z,0.5
2019-01-09T00:56:22.468Z,0.5
2019-01-09T00:59:28.426Z,0.5
2019-01-09T01:02:34.343Z,0.5
2019-01-09T01:05:49.114Z,0.5
2019-01-09T01:08:55.007Z,0.5
2019-01-09T01:12:00.972Z,0.5
2019-01-09T01:15:06.936Z,0.5
2019-01-09T01:18:12.848Z,0.5
2019-01-09T01:21:18.847Z,0.5
2019-01-09T01:24:24.908Z,0.5
2019-01-09T01:27:30.875Z,0.5
2019-01-09T01:30:36.834Z,0.5
2019-01-09T01:33:42.795Z,0.5
2019-01-09T01:36:48.756Z,0.5
2019-01-09T01:39:54.703Z,0.5
2019-01-09T01:43:00.667Z,0.5
2019-01-09T01:46:06.705Z,0.5
2019-01-09T01:49:12.691Z,0.5
2019-01-09T01:52:18.563Z,0.5
2019-01-09T01:55:27.596Z,0.5
2019-01-09T01:58:33.474Z,0.5
2019-01-09T02:01:39.526Z,0.5
2019-01-09T02:04:45.419Z,0.5
2019-01-09T02:07:51.411Z,0.5
2019-01-09T02:10:57.452Z,0.5
2019-01-09T02:14:03.513Z,0.5
2019-01-09T02:17:09.491Z,0.5
2019-01-09T02:20:15.607Z,0.5
2019-01-09T02:23:21.574Z,0.5
2019-01-09T02:26:27.473Z,0.5
2019-01-09T02:29:33.432Z,0.5
2019-01-09T02:32:39.494Z,0.5
2019-01-09T02:35:45.453Z,0.5
2019-01-09T02:38:51.324Z,0.5
2019-01-09T02:41:57.268Z,0.5
2019-01-09T02:45:03.403Z,0.5
2019-01-09T02:48:09.393Z,0.5
2019-01-09T02:51:15.265Z,0.5
2019-01-09T02:54:23.650Z,0.5
2019-01-09T02:57:29.735Z,0.5
2019-01-09T03:00:35.695Z,0.5
2019-01-09T03:03:41.813Z,0.5
2019-01-09T03:06:47.711Z,0.5
2019-01-09T03:09:53.773Z,0.5
2019-01-09T03:12:59.815Z,0.5
2019-01-09T03:16:05.791Z,0.5
2019-01-09T03:19:11.834Z,0.5
2019-01-09T03:22:17.706Z,0.5
2019-01-09T03:25:24.833Z,0.5
2019-01-09T03:28:30.705Z,0.5
2019-01-09T03:31:36.824Z,0.5
2019-01-09T03:34:42.829Z,0.5
2019-01-09T03:37:48.738Z,0.5
2019-01-09T03:40:54.645Z,0.5
2019-01-09T03:44:00.747Z,0.5
2019-01-09T03:47:06.768Z,0.6
2019-01-09T03:50:12.673Z,155.5
2019-01-09T03:53:18.702Z,190.1
2019-01-09T03:56:24.674Z,197.3
2019-01-09T03:59:30.762Z,201.6
2019-01-09T04:02:36.723Z,204.5
2019-01-09T04:05:42.680Z,204.5
2019-01-09T04:08:48.639Z,205.9
2019-01-09T04:11:54.591Z,207.4
2019-01-09T04:15:00.563Z,205.9
2019-01-09T04:18:06.430Z,205.9
2019-01-09T04:21:12.379Z,205.9
2019-01-09T04:24:18.431Z,205.9
2019-01-09T04:27:24.303Z,210.2
2019-01-09T04:30:30.573Z,210.2
2019-01-09T04:33:36.567Z,210.2
2019-01-09T04:36:52.098Z,210.2
2019-01-09T04:39:57.998Z,210.2
2019-01-09T04:43:04.026Z,210.2
2019-01-09T04:46:09.975Z,210.2
2019-01-09T04:49:15.854Z,210.2
2019-01-09T04:52:21.796Z,210.2
2019-01-09T04:55:27.760Z,210.2
2019-01-09T04:58:33.786Z,210.2
2019-01-09T05:01:39.773Z,210.2
2019-01-09T05:04:45.737Z,210.2
2019-01-09T05:07:54.260Z,210.2
2019-01-09T05:11:02.779Z,210.2
2019-01-09T05:14:08.657Z,210.2
2019-01-09T05:17:14.588Z,210.2
2019-01-09T05:20:20.526Z,210.2
2019-01-09T05:23:26.462Z,208.8
2019-01-09T05:26:35.256Z,210.2
2019-01-09T05:29:41.109Z,210.2
2019-01-09T05:32:47.154Z,210.2
2019-01-09T05:35:53.067Z,210.2
2019-01-09T05:38:59.130Z,208.8
2019-01-09T05:42:05.136Z,210.2
2019-01-09T05:45:11.096Z,204.5
2019-01-09T05:48:17.159Z,125.3
2019-01-09T05:51:23.224Z,210.2
2019-01-09T05:54:29.178Z,205.9
2019-01-09T05:57:35.185Z,205.9
2019-01-09T06:00:41.456Z,205.9
2019-01-09T06:03:47.343Z,210.2
2019-01-09T06:06:53.430Z,208.8
2019-01-09T06:09:59.299Z,140.4
2019-01-09T06:13:05.393Z,207.4
2019-01-09T06:16:13.424Z,207.4
2019-01-09T06:19:19.463Z,204.5
2019-01-09T06:22:25.573Z,216
2019-01-09T06:25:31.537Z,216
2019-01-09T06:28:37.491Z,218.9
2019-01-09T06:31:43.436Z,218.9
2019-01-09T06:34:49.407Z,218.9
2019-01-09T06:37:55.325Z,217.4
2019-01-09T06:41:01.330Z,216
2019-01-09T06:44:07.286Z,218.9
2019-01-09T06:47:13.377Z,221.8
2019-01-09T06:50:19.411Z,226.1
2019-01-09T06:53:28.589Z,227.5
2019-01-09T06:56:34.608Z,221.8
2019-01-09T06:59:40.482Z,224.6
2019-01-09T07:02:46.374Z,229
2019-01-09T07:05:52.424Z,229
2019-01-09T07:08:58.363Z,229
2019-01-09T07:12:04.714Z,229
2019-01-09T07:15:16.363Z,224.6
2019-01-09T07:18:22.330Z,227.5
2019-01-09T07:21:28.288Z,221.8
2019-01-09T07:24:35.238Z,226.1
2019-01-09T07:27:41.296Z,231.8
2019-01-09T07:30:47.345Z,224.6
2019-01-09T07:33:53.477Z,221.8
2019-01-09T07:36:59.416Z,220.3
2019-01-09T07:40:06.381Z,229
2019-01-09T07:43:12.650Z,229
2019-01-09T07:46:19.641Z,226.1
2019-01-09T07:49:25.599Z,229
2019-01-09T07:52:31.577Z,227.5
2019-01-09T07:55:38.740Z,224.6
2019-01-09T07:58:44.686Z,223.2
2019-01-09T08:01:50.948Z,221.8
2019-01-09T08:04:57.765Z,221.8
2019-01-09T08:08:03.916Z,220.3
2019-01-09T08:11:09.982Z,218.9
2019-01-09T08:14:16.357Z,218.9
2019-01-09T08:17:23.440Z,220.3
2019-01-09T08:20:29.693Z,220.3
2019-01-09T08:23:36.598Z,220.3
2019-01-09T08:26:42.768Z,218.9
2019-01-09T08:29:49.476Z,221.8
2019-01-09T08:32:55.595Z,221.8
2019-01-09T08:36:01.560Z,221.8
2019-01-09T08:39:08.458Z,220.3
2019-01-09T08:42:15.508Z,220.3
2019-01-09T08:45:21.675Z,221.8
2019-01-09T08:48:28.052Z,221.8
2019-01-09T08:51:34.202Z,221.8
2019-01-09T08:54:41.121Z,223.2
2019-01-09T08:57:47.236Z,223.2
2019-01-09T09:00:53.410Z,223.2
2019-01-09T09:04:00.708Z,223.2
2019-01-09T09:07:06.741Z,223.2
2019-01-09T09:10:13.049Z,221.8
2019-01-09T09:13:20.032Z,220.3
2019-01-09T09:16:26.068Z,218.9
2019-01-09T09:19:41.373Z,217.4
2019-01-09T09:22:49.374Z,216
2019-01-09T09:25:55.305Z,217.4
2019-01-09T09:29:01.313Z,216
2019-01-09T09:32:07.457Z,216
2019-01-09T09:35:13.421Z,214.6
2019-01-09T09:38:25.000Z,214.6
2019-01-09T09:41:31.120Z,214.6
2019-01-09T09:44:38.094Z,216
2019-01-09T09:47:44.223Z,217.4
2019-01-09T09:50:50.278Z,217.4
2019-01-09T09:53:56.162Z,220.3
2019-01-09T09:57:02.247Z,221.8
2019-01-09T10:00:08.117Z,221.8
2019-01-09T10:03:14.220Z,221.8
2019-01-09T10:06:20.150Z,223.2
2019-01-09T10:09:26.341Z,221.8
2019-01-09T10:12:32.283Z,221.8
2019-01-09T10:15:38.264Z,220.3
2019-01-09T10:18:44.313Z,223.2
2019-01-09T10:21:50.235Z,203
2019-01-09T10:24:56.126Z,216
2019-01-09T10:28:03.118Z,220.3
2019-01-09T10:31:09.123Z,217.4
2019-01-09T10:34:15.171Z,220.3
2019-01-09T10:37:21.232Z,220.3
2019-01-09T10:40:37.915Z,220.3
2019-01-09T10:43:43.870Z,218.9
2019-01-09T10:46:49.830Z,218.9
2019-01-09T10:49:55.944Z,217.4
2019-01-09T10:53:02.035Z,216
2019-01-09T10:56:08.023Z,216
2019-01-09T10:59:14.998Z,216
2019-01-09T11:02:20.993Z,214.6
2019-01-09T11:05:26.841Z,214.6
2019-01-09T11:08:33.963Z,216
2019-01-09T11:11:40.175Z,214.6
2019-01-09T11:14:46.083Z,216
2019-01-09T11:17:52.089Z,214.6
2019-01-09T11:20:58.163Z,216
2019-01-09T11:24:04.193Z,216
2019-01-09T11:27:10.301Z,216
2019-01-09T11:30:16.244Z,216
2019-01-09T11:33:22.198Z,216
2019-01-09T11:36:28.236Z,216
2019-01-09T11:39:34.271Z,214.6
2019-01-09T11:42:40.289Z,214.6
2019-01-09T11:45:46.238Z,214.6
2019-01-09T11:48:52.249Z,214.6
2019-01-09T11:52:01.311Z,214.6
2019-01-09T11:55:07.447Z,214.6
2019-01-09T11:58:13.571Z,213.1
2019-01-09T12:01:20.128Z,210.2
2019-01-09T12:04:27.090Z,211.7
2019-01-09T12:07:33.080Z,198.7
2019-01-09T12:10:39.723Z,210.2
2019-01-09T12:13:46.836Z,208.8
2019-01-09T12:16:53.109Z,211.7
2019-01-09T12:20:02.606Z,210.2
2019-01-09T12:23:08.737Z,210.2
2019-01-09T12:26:15.940Z,210.2
2019-01-09T12:29:22.369Z,211.7
2019-01-09T12:32:28.435Z,211.7
2019-01-09T12:35:34.471Z,211.7
2019-01-09T12:38:40.676Z,211.7
2019-01-09T12:41:46.530Z,211.7
2019-01-09T12:44:55.428Z,213.1
2019-01-09T12:48:03.555Z,214.6
2019-01-09T12:51:09.521Z,214.6
2019-01-09T12:54:15.476Z,214.6
2019-01-09T12:57:21.538Z,214.6
2019-01-09T13:00:27.658Z,231.8
2019-01-09T13:03:33.655Z,259.2
2019-01-09T13:06:40.710Z,272.2
2019-01-09T13:09:46.892Z,273.6
2019-01-09T13:12:55.282Z,273.6
2019-01-09T13:16:01.247Z,272.2
2019-01-09T13:19:07.738Z,272.2
2019-01-09T13:22:14.139Z,272.2
2019-01-09T13:25:20.244Z,272.2
2019-01-09T13:28:26.145Z,270.7
2019-01-09T13:31:32.125Z,220.3
2019-01-09T13:34:38.712Z,269.3
2019-01-09T13:37:45.764Z,270.7
2019-01-09T13:40:52.269Z,263.5
2019-01-09T13:43:58.919Z,270.7
2019-01-09T13:47:06.140Z,270.7
2019-01-09T13:50:14.278Z,270.7
2019-01-09T13:53:20.282Z,213.1
2019-01-09T13:56:26.342Z,269.3
2019-01-09T13:59:32.309Z,269.3
2019-01-09T14:02:38.335Z,269.3
2019-01-09T14:05:44.314Z,270.7
2019-01-09T14:08:50.201Z,269.3
2019-01-09T14:11:56.319Z,270.7
2019-01-09T14:15:02.571Z,269.3
2019-01-09T14:18:08.659Z,269.3
2019-01-09T14:21:14.710Z,266.4
2019-01-09T14:24:20.932Z,269.3
2019-01-09T14:27:26.980Z,269.3
2019-01-09T14:30:32.938Z,269.3
2019-01-09T14:33:38.855Z,269.3
2019-01-09T14:36:44.849Z,269.3
2019-01-09T14:39:51.366Z,269.3
2019-01-09T14:42:57.233Z,249.1
2019-01-09T14:46:05.409Z,267.8
2019-01-09T14:49:11.336Z,266.4
2019-01-09T14:52:17.592Z,266.4
2019-01-09T14:55:23.876Z,266.4
2019-01-09T14:58:29.937Z,266.4
2019-01-09T15:01:37.332Z,265
2019-01-09T15:04:43.622Z,265
2019-01-09T15:07:49.570Z,265
2019-01-09T15:10:55.811Z,266.4
2019-01-09T15:14:01.861Z,267.8
2019-01-09T15:17:07.935Z,265
2019-01-09T15:20:14.114Z,266.4
2019-01-09T15:23:20.550Z,266.4
2019-01-09T15:26:27.542Z,266.4
2019-01-09T15:29:34.710Z,266.4
2019-01-09T15:32:42.866Z,266.4
2019-01-09T15:35:49.056Z,266.4
2019-01-09T15:38:54.891Z,266.4
2019-01-09T15:42:00.993Z,266.4
2019-01-09T15:45:07.242Z,266.4
2019-01-09T15:48:13.261Z,266.4
2019-01-09T15:51:19.511Z,266.4
2019-01-09T15:54:25.490Z,266.4
2019-01-09T15:57:31.655Z,267.8
2019-01-09T16:00:37.578Z,267.8
2019-01-09T16:03:43.658Z,267.8
2019-01-09T16:06:49.734Z,267.8
2019-01-09T16:09:55.804Z,267.8
2019-01-09T16:13:01.792Z,267.8
2019-01-09T16:16:06.088Z,267.8
2019-01-09T16:19:12.195Z,266.4
2019-01-09T16:22:18.100Z,267.8
2019-01-09T16:25:24.060Z,269.3
2019-01-09T16:28:30.047Z,269.3
2019-01-09T16:31:35.916Z,269.3
2019-01-09T16:34:41.836Z,269.3
2019-01-09T16:37:47.795Z,269.3
2019-01-09T16:40:53.761Z,269.3
2019-01-09T16:43:59.872Z,269.3
2019-01-09T16:47:05.882Z,269.3
2019-01-09T16:50:11.949Z,269.3
2019-01-09T16:53:17.988Z,269.3
2019-01-09T16:56:24.998Z,269.3
2019-01-09T16:59:30.928Z,270.7
2019-01-09T17:02:38.144Z,269.3
2019-01-09T17:05:46.075Z,270.7
2019-01-09T17:08:52.607Z,270.7
2019-01-09T17:11:58.573Z,270.7
2019-01-09T17:15:04.636Z,270.7
2019-01-09T17:18:10.696Z,269.3
2019-01-09T17:21:19.726Z,270.7
2019-01-09T17:24:26.057Z,270.7
2019-01-09T17:27:31.940Z,270.7
2019-01-09T17:30:38.022Z,270.7
2019-01-09T17:33:43.975Z,272.2
2019-01-09T17:36:50.036Z,270.7
2019-01-09T17:39:55.999Z,272.2
2019-01-09T17:43:02.164Z,270.7
2019-01-09T17:46:08.120Z,272.2
2019-01-09T17:49:14.079Z,270.7
2019-01-09T17:52:23.509Z,270.7
2019-01-09T17:55:29.489Z,272.2
2019-01-09T17:58:35.444Z,272.2
2019-01-09T18:01:42.635Z,272.2
2019-01-09T18:04:48.693Z,272.2
2019-01-09T18:07:55.559Z,272.2
2019-01-09T18:11:04.325Z,272.2
2019-01-09T18:14:10.254Z,273.6
2019-01-09T18:17:16.328Z,272.2
2019-01-09T18:20:22.484Z,273.6
2019-01-09T18:23:28.455Z,275
2019-01-09T18:26:34.400Z,273.6
2019-01-09T18:29:40.442Z,273.6
2019-01-09T18:32:46.634Z,273.6
2019-01-09T18:35:52.591Z,275
2019-01-09T18:38:58.549Z,273.6
2019-01-09T18:42:05.041Z,273.6
2019-01-09T18:45:12.224Z,270.7
2019-01-09T18:48:18.461Z,270.7
2019-01-09T18:51:26.969Z,270.7
2019-01-09T18:54:33.062Z,270.7
2019-01-09T18:57:39.115Z,270.7
2019-01-09T19:00:45.297Z,270.7
2019-01-09T19:03:51.340Z,270.7
2019-01-09T19:06:57.510Z,270.7
2019-01-09T19:10:03.663Z,270.7
2019-01-09T19:13:09.632Z,270.7
2019-01-09T19:16:15.693Z,270.7
2019-01-09T19:19:21.755Z,270.7
2019-01-09T19:22:27.924Z,269.3
2019-01-09T19:25:33.883Z,0
2019-01-09T19:28:39.858Z,0
2019-01-09T19:31:45.802Z,0
2019-01-09T19:34:51.866Z,0
2019-01-09T19:37:57.980Z,0
2019-01-09T19:41:03.886Z,0
2019-01-09T19:44:09.762Z,0
2019-01-09T19:47:15.711Z,0
2019-01-09T19:50:21.759Z,0
2019-01-09T19:53:27.831Z,0
2019-01-09T19:56:33.785Z,0
2019-01-09T19:59:39.843Z,0
2019-01-09T20:02:45.867Z,0
2019-01-09T20:05:51.765Z,0
2019-01-09T20:08:57.808Z,0
2019-01-09T20:12:03.794Z,0
2019-01-09T20:15:09.862Z,0
2019-01-09T20:18:16.061Z,0
2019-01-09T20:21:22.128Z,0
2019-01-09T20:24:28.251Z,0
2019-01-09T20:27:34.491Z,0
2019-01-09T20:30:40.667Z,0
2019-01-09T20:33:46.729Z,0
2019-01-09T20:36:52.879Z,0
2019-01-09T20:39:58.880Z,0
2019-01-09T20:43:05.117Z,0
2019-01-09T20:46:11.193Z,0
2019-01-09T20:49:17.346Z,0
2019-01-09T20:52:23.574Z,0
2019-01-09T20:55:29.690Z,0
2019-01-09T20:58:35.959Z,0
2019-01-09T21:01:42.014Z,0
2019-01-09T21:04:48.315Z,0
2019-01-09T21:07:54.607Z,0
2019-01-09T21:11:00.605Z,0
2019-01-09T21:14:06.747Z,0
2019-01-09T21:17:13.017Z,0
2019-01-09T21:20:19.027Z,0
2019-01-09T21:23:24.865Z,0
2019-01-09T21:26:30.841Z,0
2019-01-09T21:29:36.771Z,0
2019-01-09T21:32:42.685Z,0
2019-01-09T21:35:48.589Z,0
2019-01-09T21:38:54.545Z,0
2019-01-09T21:42:00.562Z,0
2019-01-09T21:45:06.564Z,0
2019-01-09T21:48:12.447Z,0
2019-01-09T21:51:18.414Z,0
2019-01-09T21:54:24.447Z,0
2019-01-09T21:57:30.405Z,0
2019-01-09T22:00:36.364Z,0
2019-01-09T22:03:42.242Z,0
2019-01-09T22:06:48.182Z,0
2019-01-09T22:09:54.142Z,0
2019-01-09T22:13:00.017Z,0
2019-01-09T22:16:06.061Z,0
2019-01-09T22:19:15.299Z,0
2019-01-09T22:22:21.243Z,0
2019-01-09T22:25:27.215Z,0
2019-01-09T22:28:33.094Z,0
2019-01-09T22:31:39.134Z,0
2019-01-09T22:34:45.125Z,0
2019-01-09T22:37:51.214Z,0
2019-01-09T22:40:57.117Z,0
2019-01-09T22:44:03.078Z,0
2019-01-09T22:47:10.979Z,0
2019-01-09T22:50:16.943Z,0
2019-01-09T22:53:22.901Z,0
2019-01-09T22:56:28.869Z,0
2019-01-09T22:59:35.025Z,0
2019-01-09T23:02:40.900Z,0
2019-01-09T23:05:49.811Z,0
2019-01-09T23:08:55.771Z,0
2019-01-09T23:12:01.732Z,0
2019-01-09T23:15:07.604Z,0
2019-01-09T23:18:13.656Z,0
2019-01-09T23:21:20.014Z,0
2019-01-09T23:24:25.975Z,0
2019-01-09T23:27:32.038Z,0
2019-01-09T23:30:37.916Z,0
2019-01-09T23:33:43.874Z,0
2019-01-09T23:36:49.816Z,0
2019-01-09T23:39:55.995Z,0
2019-01-09T23:43:05.122Z,0
2019-01-09T23:46:11.125Z,0
2019-01-09T23:49:17.042Z,0
2019-01-09T23:52:23.001Z,0
2019-01-09T23:55:28.960Z,0
2019-01-09T23:58:34.889Z,0
